sensor_id;sensor_type;location;lat;lon;timestamp;temperature;humidity
40257;DHT22;25977;45.462;9.210;2022-08-05T00:01:20;31.40;51.20
40257;DHT22;25977;45.462;9.210;2022-08-05T00:03:47;31.40;51.30
40257;DHT22;25977;45.462;9.210;2022-08-05T00:06:14;31.50;51.40
40257;DHT22;25977;45.462;9.210;2022-08-05T00:08:40;31.40;51.30
40257;DHT22;25977;45.462;9.210;2022-08-05T00:11:10;31.40;51.40
40257;DHT22;25977;45.462;9.210;2022-08-05T00:13:37;31.40;51.40
40257;DHT22;25977;45.462;9.210;2022-08-05T00:16:04;31.40;51.50
40257;DHT22;25977;45.462;9.210;2022-08-05T00:18:30;31.30;51.50
40257;DHT22;25977;45.462;9.210;2022-08-05T00:20:56;31.20;51.70
40257;DHT22;25977;45.462;9.210;2022-08-05T00:23:22;31.30;51.70
40257;DHT22;25977;45.462;9.210;2022-08-05T00:25:49;31.30;51.70
40257;DHT22;25977;45.462;9.210;2022-08-05T00:28:15;31.30;51.60
40257;DHT22;25977;45.462;9.210;2022-08-05T00:30:42;31.20;51.60
40257;DHT22;25977;45.462;9.210;2022-08-05T00:33:08;31.30;51.80
40257;DHT22;25977;45.462;9.210;2022-08-05T00:35:34;31.10;51.90
40257;DHT22;25977;45.462;9.210;2022-08-05T00:38:00;31.10;51.80
40257;DHT22;25977;45.462;9.210;2022-08-05T00:40:26;31.20;51.70
40257;DHT22;25977;45.462;9.210;2022-08-05T00:42:53;31.20;51.70
40257;DHT22;25977;45.462;9.210;2022-08-05T00:45:19;31.20;51.60
40257;DHT22;25977;45.462;9.210;2022-08-05T00:47:44;31.20;51.60
40257;DHT22;25977;45.462;9.210;2022-08-05T00:50:10;31.20;51.70
40257;DHT22;25977;45.462;9.210;2022-08-05T00:52:36;31.20;51.70
40257;DHT22;25977;45.462;9.210;2022-08-05T00:55:02;31.20;51.80
40257;DHT22;25977;45.462;9.210;2022-08-05T00:57:28;31.20;51.90
40257;DHT22;25977;45.462;9.210;2022-08-05T00:59:53;31.20;51.90
40257;DHT22;25977;45.462;9.210;2022-08-05T01:02:19;31.10;51.90
40257;DHT22;25977;45.462;9.210;2022-08-05T01:04:45;31.10;52.00
40257;DHT22;25977;45.462;9.210;2022-08-05T01:07:11;31.10;52.10
40257;DHT22;25977;45.462;9.210;2022-08-05T01:09:36;31.00;52.10
40257;DHT22;25977;45.462;9.210;2022-08-05T01:12:06;31.00;52.20
40257;DHT22;25977;45.462;9.210;2022-08-05T01:17:48;30.90;52.20
40257;DHT22;25977;45.462;9.210;2022-08-05T01:23:24;30.90;52.70
40257;DHT22;25977;45.462;9.210;2022-08-05T01:28:37;30.50;52.70
40257;DHT22;25977;45.462;9.210;2022-08-05T01:31:16;30.60;52.60
40257;DHT22;25977;45.462;9.210;2022-08-05T01:36:53;30.60;52.30
40257;DHT22;25977;45.462;9.210;2022-08-05T01:39:20;30.70;52.30
40257;DHT22;25977;45.462;9.210;2022-08-05T01:44:17;30.60;52.30
40257;DHT22;25977;45.462;9.210;2022-08-05T01:46:44;30.60;52.40
40257;DHT22;25977;45.462;9.210;2022-08-05T01:49:14;30.60;52.40
40257;DHT22;25977;45.462;9.210;2022-08-05T01:51:41;30.60;52.50
40257;DHT22;25977;45.462;9.210;2022-08-05T01:54:08;30.60;52.40
40257;DHT22;25977;45.462;9.210;2022-08-05T01:56:38;30.50;52.30
40257;DHT22;25977;45.462;9.210;2022-08-05T01:59:12;30.60;52.50
40257;DHT22;25977;45.462;9.210;2022-08-05T02:01:38;30.50;52.30
40257;DHT22;25977;45.462;9.210;2022-08-05T02:04:05;30.50;52.40
40257;DHT22;25977;45.462;9.210;2022-08-05T02:06:32;30.40;52.40
40257;DHT22;25977;45.462;9.210;2022-08-05T02:08:58;30.40;52.50
40257;DHT22;25977;45.462;9.210;2022-08-05T02:11:28;30.40;52.60
40257;DHT22;25977;45.462;9.210;2022-08-05T02:14:01;30.40;52.60
40257;DHT22;25977;45.462;9.210;2022-08-05T02:16:42;30.40;52.60
40257;DHT22;25977;45.462;9.210;2022-08-05T02:21:44;30.30;52.50
40257;DHT22;25977;45.462;9.210;2022-08-05T02:24:17;30.30;52.60
40257;DHT22;25977;45.462;9.210;2022-08-05T02:26:50;30.30;52.50
40257;DHT22;25977;45.462;9.210;2022-08-05T02:29:21;30.30;52.60
40257;DHT22;25977;45.462;9.210;2022-08-05T02:31:49;30.30;52.50
40257;DHT22;25977;45.462;9.210;2022-08-05T02:34:15;30.30;52.60
40257;DHT22;25977;45.462;9.210;2022-08-05T02:36:44;30.30;52.60
40257;DHT22;25977;45.462;9.210;2022-08-05T02:39:15;30.20;52.50
40257;DHT22;25977;45.462;9.210;2022-08-05T02:44:16;30.20;52.70
40257;DHT22;25977;45.462;9.210;2022-08-05T02:46:44;30.10;52.60
40257;DHT22;25977;45.462;9.210;2022-08-05T02:49:14;30.00;52.60
40257;DHT22;25977;45.462;9.210;2022-08-05T02:51:41;30.00;52.80
40257;DHT22;25977;45.462;9.210;2022-08-05T02:54:08;30.10;52.80
40257;DHT22;25977;45.462;9.210;2022-08-05T02:56:34;30.00;53.20
40257;DHT22;25977;45.462;9.210;2022-08-05T02:59:00;30.10;52.90
40257;DHT22;25977;45.462;9.210;2022-08-05T03:01:28;30.00;52.80
40257;DHT22;25977;45.462;9.210;2022-08-05T03:03:58;30.10;52.80
40257;DHT22;25977;45.462;9.210;2022-08-05T03:06:25;30.10;52.70
40257;DHT22;25977;45.462;9.210;2022-08-05T03:08:52;30.10;52.70
40257;DHT22;25977;45.462;9.210;2022-08-05T03:11:22;30.10;52.70
40257;DHT22;25977;45.462;9.210;2022-08-05T03:13:49;30.10;52.80
40257;DHT22;25977;45.462;9.210;2022-08-05T03:16:15;30.10;52.70
40257;DHT22;25977;45.462;9.210;2022-08-05T03:18:41;30.10;52.70
40257;DHT22;25977;45.462;9.210;2022-08-05T03:21:07;30.10;52.60
40257;DHT22;25977;45.462;9.210;2022-08-05T03:23:34;30.10;52.70
40257;DHT22;25977;45.462;9.210;2022-08-05T03:26:01;30.00;52.70
40257;DHT22;25977;45.462;9.210;2022-08-05T03:28:28;30.10;52.70
40257;DHT22;25977;45.462;9.210;2022-08-05T03:30:55;30.00;52.50
40257;DHT22;25977;45.462;9.210;2022-08-05T03:33:21;30.10;52.70
40257;DHT22;25977;45.462;9.210;2022-08-05T03:35:48;30.00;52.60
40257;DHT22;25977;45.462;9.210;2022-08-05T03:38:14;30.10;52.70
40257;DHT22;25977;45.462;9.210;2022-08-05T03:40:44;30.10;52.70
40257;DHT22;25977;45.462;9.210;2022-08-05T03:43:11;30.10;52.60
40257;DHT22;25977;45.462;9.210;2022-08-05T03:45:37;30.10;52.50
40257;DHT22;25977;45.462;9.210;2022-08-05T03:48:03;30.10;52.70
40257;DHT22;25977;45.462;9.210;2022-08-05T03:51:37;30.10;52.30
40257;DHT22;25977;45.462;9.210;2022-08-05T03:54:16;30.20;52.40
40257;DHT22;25977;45.462;9.210;2022-08-05T03:56:40;30.10;52.40
40257;DHT22;25977;45.462;9.210;2022-08-05T03:59:42;30.20;52.40
40257;DHT22;25977;45.462;9.210;2022-08-05T04:02:10;30.20;52.20
40257;DHT22;25977;45.462;9.210;2022-08-05T04:04:38;30.20;52.30
40257;DHT22;25977;45.462;9.210;2022-08-05T04:07:05;30.20;52.20
40257;DHT22;25977;45.462;9.210;2022-08-05T04:09:31;30.20;52.30
40257;DHT22;25977;45.462;9.210;2022-08-05T04:11:58;30.20;52.30
40257;DHT22;25977;45.462;9.210;2022-08-05T04:14:25;30.20;52.20
40257;DHT22;25977;45.462;9.210;2022-08-05T04:16:51;30.20;52.10
40257;DHT22;25977;45.462;9.210;2022-08-05T04:19:17;30.20;52.10
40257;DHT22;25977;45.462;9.210;2022-08-05T04:21:43;30.30;52.10
40257;DHT22;25977;45.462;9.210;2022-08-05T04:24:08;30.20;51.90
40257;DHT22;25977;45.462;9.210;2022-08-05T04:26:34;30.30;52.20
40257;DHT22;25977;45.462;9.210;2022-08-05T04:29:00;30.30;52.20
40257;DHT22;25977;45.462;9.210;2022-08-05T04:31:26;30.30;52.20
40257;DHT22;25977;45.462;9.210;2022-08-05T04:33:52;30.30;51.70
40257;DHT22;25977;45.462;9.210;2022-08-05T04:36:17;30.30;52.10
40257;DHT22;25977;45.462;9.210;2022-08-05T04:38:43;30.30;52.00
40257;DHT22;25977;45.462;9.210;2022-08-05T04:41:09;30.30;51.90
40257;DHT22;25977;45.462;9.210;2022-08-05T04:43:37;30.30;51.90
40257;DHT22;25977;45.462;9.210;2022-08-05T04:46:04;30.30;51.80
40257;DHT22;25977;45.462;9.210;2022-08-05T04:48:30;30.30;51.80
40257;DHT22;25977;45.462;9.210;2022-08-05T04:50:56;30.30;51.50
40257;DHT22;25977;45.462;9.210;2022-08-05T04:53:22;30.30;51.60
40257;DHT22;25977;45.462;9.210;2022-08-05T04:55:48;30.40;51.70
40257;DHT22;25977;45.462;9.210;2022-08-05T04:58:16;30.40;51.70
40257;DHT22;25977;45.462;9.210;2022-08-05T05:00:42;30.40;51.90
40257;DHT22;25977;45.462;9.210;2022-08-05T05:03:09;30.40;51.80
40257;DHT22;25977;45.462;9.210;2022-08-05T05:05:36;30.40;51.60
40257;DHT22;25977;45.462;9.210;2022-08-05T05:08:07;30.40;51.50
40257;DHT22;25977;45.462;9.210;2022-08-05T05:10:45;30.40;51.60
40257;DHT22;25977;45.462;9.210;2022-08-05T05:13:16;30.50;51.60
40257;DHT22;25977;45.462;9.210;2022-08-05T05:15:43;30.50;51.60
40257;DHT22;25977;45.462;9.210;2022-08-05T05:18:12;30.50;51.70
40257;DHT22;25977;45.462;9.210;2022-08-05T05:20:41;30.50;51.70
40257;DHT22;25977;45.462;9.210;2022-08-05T05:23:06;30.50;52.10
40257;DHT22;25977;45.462;9.210;2022-08-05T05:25:32;30.60;52.20
40257;DHT22;25977;45.462;9.210;2022-08-05T05:27:58;30.60;52.30
40257;DHT22;25977;45.462;9.210;2022-08-05T05:30:24;30.70;52.10
40257;DHT22;25977;45.462;9.210;2022-08-05T05:32:50;30.80;52.00
40257;DHT22;25977;45.462;9.210;2022-08-05T05:35:15;30.90;51.80
40257;DHT22;25977;45.462;9.210;2022-08-05T05:37:51;31.10;51.70
40257;DHT22;25977;45.462;9.210;2022-08-05T05:40:19;31.90;51.10
40257;DHT22;25977;45.462;9.210;2022-08-05T05:42:46;33.20;49.50
40257;DHT22;25977;45.462;9.210;2022-08-05T05:45:12;34.60;47.90
40257;DHT22;25977;45.462;9.210;2022-08-05T05:47:38;35.80;46.40
40257;DHT22;25977;45.462;9.210;2022-08-05T05:50:06;36.80;45.30
40257;DHT22;25977;45.462;9.210;2022-08-05T05:52:32;37.60;44.60
40257;DHT22;25977;45.462;9.210;2022-08-05T05:55:03;38.20;43.90
40257;DHT22;25977;45.462;9.210;2022-08-05T05:57:29;38.70;43.40
40257;DHT22;25977;45.462;9.210;2022-08-05T05:59:55;38.90;43.20
40257;DHT22;25977;45.462;9.210;2022-08-05T06:02:21;39.30;42.80
40257;DHT22;25977;45.462;9.210;2022-08-05T06:04:46;39.70;42.60
40257;DHT22;25977;45.462;9.210;2022-08-05T06:07:12;40.00;42.90
40257;DHT22;25977;45.462;9.210;2022-08-05T06:09:38;40.30;42.20
40257;DHT22;25977;45.462;9.210;2022-08-05T06:12:04;40.90;41.80
40257;DHT22;25977;45.462;9.210;2022-08-05T06:14:30;41.40;41.30
40257;DHT22;25977;45.462;9.210;2022-08-05T06:16:56;41.60;41.10
40257;DHT22;25977;45.462;9.210;2022-08-05T06:19:22;41.80;41.10
40257;DHT22;25977;45.462;9.210;2022-08-05T06:21:48;42.00;40.80
40257;DHT22;25977;45.462;9.210;2022-08-05T06:24:14;42.10;40.60
40257;DHT22;25977;45.462;9.210;2022-08-05T06:26:40;42.20;40.40
40257;DHT22;25977;45.462;9.210;2022-08-05T06:29:06;42.30;40.40
40257;DHT22;25977;45.462;9.210;2022-08-05T06:31:31;42.60;40.40
40257;DHT22;25977;45.462;9.210;2022-08-05T06:33:57;42.80;40.40
40257;DHT22;25977;45.462;9.210;2022-08-05T06:36:23;43.00;40.20
40257;DHT22;25977;45.462;9.210;2022-08-05T06:38:48;43.30;40.20
40257;DHT22;25977;45.462;9.210;2022-08-05T06:41:19;43.40;40.00
40257;DHT22;25977;45.462;9.210;2022-08-05T06:43:45;43.50;39.90
40257;DHT22;25977;45.462;9.210;2022-08-05T06:46:12;43.70;39.70
40257;DHT22;25977;45.462;9.210;2022-08-05T06:48:37;43.70;39.70
40257;DHT22;25977;45.462;9.210;2022-08-05T06:51:03;43.60;39.70
40257;DHT22;25977;45.462;9.210;2022-08-05T06:53:29;43.60;39.60
40257;DHT22;25977;45.462;9.210;2022-08-05T06:55:59;43.40;39.60
40257;DHT22;25977;45.462;9.210;2022-08-05T06:58:25;43.10;39.70
40257;DHT22;25977;45.462;9.210;2022-08-05T07:00:51;42.70;40.00
40257;DHT22;25977;45.462;9.210;2022-08-05T07:03:17;42.10;40.30
40257;DHT22;25977;45.462;9.210;2022-08-05T07:05:43;41.30;41.30
40257;DHT22;25977;45.462;9.210;2022-08-05T07:08:09;40.90;41.30
40257;DHT22;25977;45.462;9.210;2022-08-05T07:10:35;40.20;41.60
40257;DHT22;25977;45.462;9.210;2022-08-05T07:13:01;39.70;42.00
40257;DHT22;25977;45.462;9.210;2022-08-05T07:15:45;39.20;42.30
40257;DHT22;25977;45.462;9.210;2022-08-05T07:18:30;38.80;42.60
40257;DHT22;25977;45.462;9.210;2022-08-05T07:20:55;38.50;42.90
40257;DHT22;25977;45.462;9.210;2022-08-05T07:23:21;38.20;43.00
40257;DHT22;25977;45.462;9.210;2022-08-05T07:25:47;38.00;43.10
40257;DHT22;25977;45.462;9.210;2022-08-05T07:28:13;37.90;43.30
40257;DHT22;25977;45.462;9.210;2022-08-05T07:30:38;37.80;43.30
40257;DHT22;25977;45.462;9.210;2022-08-05T07:33:06;37.60;43.40
40257;DHT22;25977;45.462;9.210;2022-08-05T07:35:33;37.50;43.70
40257;DHT22;25977;45.462;9.210;2022-08-05T07:37:58;37.50;43.80
40257;DHT22;25977;45.462;9.210;2022-08-05T07:40:24;37.50;43.60
40257;DHT22;25977;45.462;9.210;2022-08-05T07:42:50;37.50;43.50
40257;DHT22;25977;45.462;9.210;2022-08-05T07:45:15;37.30;43.60
40257;DHT22;25977;45.462;9.210;2022-08-05T07:47:41;37.30;43.80
40257;DHT22;25977;45.462;9.210;2022-08-05T07:50:07;37.30;44.00
40257;DHT22;25977;45.462;9.210;2022-08-05T07:52:40;37.40;43.70
40257;DHT22;25977;45.462;9.210;2022-08-05T07:55:08;37.30;43.80
40257;DHT22;25977;45.462;9.210;2022-08-05T07:57:34;37.40;43.50
40257;DHT22;25977;45.462;9.210;2022-08-05T08:00:01;37.30;43.60
40257;DHT22;25977;45.462;9.210;2022-08-05T08:02:27;37.20;43.80
40257;DHT22;25977;45.462;9.210;2022-08-05T08:04:54;37.30;43.50
40257;DHT22;25977;45.462;9.210;2022-08-05T08:07:20;37.30;43.00
40257;DHT22;25977;45.462;9.210;2022-08-05T08:09:47;37.30;42.70
40257;DHT22;25977;45.462;9.210;2022-08-05T08:12:13;37.20;42.60
40257;DHT22;25977;45.462;9.210;2022-08-05T08:14:39;37.30;42.50
40257;DHT22;25977;45.462;9.210;2022-08-05T08:17:04;37.40;42.80
40257;DHT22;25977;45.462;9.210;2022-08-05T08:19:38;37.40;43.20
40257;DHT22;25977;45.462;9.210;2022-08-05T08:22:05;37.30;43.30
40257;DHT22;25977;45.462;9.210;2022-08-05T08:24:31;37.40;43.50
40257;DHT22;25977;45.462;9.210;2022-08-05T08:26:57;37.30;43.10
40257;DHT22;25977;45.462;9.210;2022-08-05T08:29:23;37.30;42.90
40257;DHT22;25977;45.462;9.210;2022-08-05T08:31:49;37.30;43.00
40257;DHT22;25977;45.462;9.210;2022-08-05T08:34:20;37.30;43.40
40257;DHT22;25977;45.462;9.210;2022-08-05T08:36:46;37.10;43.40
40257;DHT22;25977;45.462;9.210;2022-08-05T08:39:11;37.10;43.40
40257;DHT22;25977;45.462;9.210;2022-08-05T08:41:40;37.10;43.40
40257;DHT22;25977;45.462;9.210;2022-08-05T08:44:10;37.10;43.70
40257;DHT22;25977;45.462;9.210;2022-08-05T08:46:36;37.20;43.80
40257;DHT22;25977;45.462;9.210;2022-08-05T08:49:04;37.20;43.80
40257;DHT22;25977;45.462;9.210;2022-08-05T08:51:34;37.20;43.70
40257;DHT22;25977;45.462;9.210;2022-08-05T08:53:59;37.20;43.50
40257;DHT22;25977;45.462;9.210;2022-08-05T08:56:26;37.10;43.80
40257;DHT22;25977;45.462;9.210;2022-08-05T08:58:52;37.10;44.00
40257;DHT22;25977;45.462;9.210;2022-08-05T09:01:19;37.20;44.00
40257;DHT22;25977;45.462;9.210;2022-08-05T09:03:47;37.20;43.60
40257;DHT22;25977;45.462;9.210;2022-08-05T09:06:13;37.30;43.60
40257;DHT22;25977;45.462;9.210;2022-08-05T09:08:39;37.40;43.80
40257;DHT22;25977;45.462;9.210;2022-08-05T09:11:06;37.20;42.90
40257;DHT22;25977;45.462;9.210;2022-08-05T09:13:33;37.10;43.20
40257;DHT22;25977;45.462;9.210;2022-08-05T09:15:59;37.20;43.10
40257;DHT22;25977;45.462;9.210;2022-08-05T09:18:25;37.10;43.00
40257;DHT22;25977;45.462;9.210;2022-08-05T09:20:51;37.00;43.10
40257;DHT22;25977;45.462;9.210;2022-08-05T09:23:18;37.10;43.10
40257;DHT22;25977;45.462;9.210;2022-08-05T09:25:47;37.20;43.00
40257;DHT22;25977;45.462;9.210;2022-08-05T09:28:20;37.10;43.20
40257;DHT22;25977;45.462;9.210;2022-08-05T09:30:55;37.30;43.30
40257;DHT22;25977;45.462;9.210;2022-08-05T09:33:22;37.10;43.10
40257;DHT22;25977;45.462;9.210;2022-08-05T09:38:23;37.10;43.40
40257;DHT22;25977;45.462;9.210;2022-08-05T09:40:49;37.00;43.10
40257;DHT22;25977;45.462;9.210;2022-08-05T09:43:30;37.10;43.10
40257;DHT22;25977;45.462;9.210;2022-08-05T09:45:56;37.10;43.00
40257;DHT22;25977;45.462;9.210;2022-08-05T09:48:30;37.10;43.00
40257;DHT22;25977;45.462;9.210;2022-08-05T09:51:03;37.10;43.10
40257;DHT22;25977;45.462;9.210;2022-08-05T09:53:30;37.10;42.70
40257;DHT22;25977;45.462;9.210;2022-08-05T09:56:10;37.10;43.00
40257;DHT22;25977;45.462;9.210;2022-08-05T09:58:36;37.10;42.80
40257;DHT22;25977;45.462;9.210;2022-08-05T10:01:06;37.10;42.90
40257;DHT22;25977;45.462;9.210;2022-08-05T10:03:33;37.20;43.00
40257;DHT22;25977;45.462;9.210;2022-08-05T10:06:09;37.30;43.00
40257;DHT22;25977;45.462;9.210;2022-08-05T10:08:36;37.30;43.10
40257;DHT22;25977;45.462;9.210;2022-08-05T10:11:14;37.10;43.20
40257;DHT22;25977;45.462;9.210;2022-08-05T10:13:40;36.90;43.40
40257;DHT22;25977;45.462;9.210;2022-08-05T10:16:27;36.90;42.90
40257;DHT22;25977;45.462;9.210;2022-08-05T10:18:54;37.10;43.00
40257;DHT22;25977;45.462;9.210;2022-08-05T10:21:19;37.00;43.30
40257;DHT22;25977;45.462;9.210;2022-08-05T10:23:46;37.10;43.40
40257;DHT22;25977;45.462;9.210;2022-08-05T10:26:12;37.20;43.80
40257;DHT22;25977;45.462;9.210;2022-08-05T10:28:38;37.10;43.70
40257;DHT22;25977;45.462;9.210;2022-08-05T10:31:05;37.10;43.80
40257;DHT22;25977;45.462;9.210;2022-08-05T10:33:32;37.00;43.60
40257;DHT22;25977;45.462;9.210;2022-08-05T10:35:59;36.90;43.80
40257;DHT22;25977;45.462;9.210;2022-08-05T10:38:30;36.80;43.70
40257;DHT22;25977;45.462;9.210;2022-08-05T10:41:25;36.60;43.60
40257;DHT22;25977;45.462;9.210;2022-08-05T10:43:58;36.20;44.00
40257;DHT22;25977;45.462;9.210;2022-08-05T10:46:43;36.30;43.60
40257;DHT22;25977;45.462;9.210;2022-08-05T10:49:09;36.40;43.50
40257;DHT22;25977;45.462;9.210;2022-08-05T10:51:49;36.50;43.40
40257;DHT22;25977;45.462;9.210;2022-08-05T10:54:16;36.70;43.10
40257;DHT22;25977;45.462;9.210;2022-08-05T10:56:52;36.60;42.90
40257;DHT22;25977;45.462;9.210;2022-08-05T10:59:28;36.70;42.50
40257;DHT22;25977;45.462;9.210;2022-08-05T11:02:12;36.70;42.00
40257;DHT22;25977;45.462;9.210;2022-08-05T11:04:42;36.70;41.70
40257;DHT22;25977;45.462;9.210;2022-08-05T11:07:08;36.70;41.80
40257;DHT22;25977;45.462;9.210;2022-08-05T11:12:02;36.70;41.20
40257;DHT22;25977;45.462;9.210;2022-08-05T11:14:32;36.70;41.50
40257;DHT22;25977;45.462;9.210;2022-08-05T11:19:49;36.80;41.70
40257;DHT22;25977;45.462;9.210;2022-08-05T11:22:43;36.70;41.70
40257;DHT22;25977;45.462;9.210;2022-08-05T11:25:34;36.60;42.00
40257;DHT22;25977;45.462;9.210;2022-08-05T11:33:54;36.50;41.90
40257;DHT22;25977;45.462;9.210;2022-08-05T11:39:05;36.10;41.90
40257;DHT22;25977;45.462;9.210;2022-08-05T11:41:31;36.30;41.70
40257;DHT22;25977;45.462;9.210;2022-08-05T11:44:09;36.50;42.20
40257;DHT22;25977;45.462;9.210;2022-08-05T11:49:07;36.40;41.90
40257;DHT22;25977;45.462;9.210;2022-08-05T11:51:36;36.30;41.90
40257;DHT22;25977;45.462;9.210;2022-08-05T11:54:02;36.40;41.80
40257;DHT22;25977;45.462;9.210;2022-08-05T11:56:44;36.50;41.30
40257;DHT22;25977;45.462;9.210;2022-08-05T11:59:23;36.60;41.60
40257;DHT22;25977;45.462;9.210;2022-08-05T12:02:04;36.50;41.70
40257;DHT22;25977;45.462;9.210;2022-08-05T12:04:44;36.60;41.20
40257;DHT22;25977;45.462;9.210;2022-08-05T12:07:13;36.50;41.50
40257;DHT22;25977;45.462;9.210;2022-08-05T12:12:09;36.30;42.10
40257;DHT22;25977;45.462;9.210;2022-08-05T12:14:40;36.30;41.70
40257;DHT22;25977;45.462;9.210;2022-08-05T12:17:10;36.50;41.80
40257;DHT22;25977;45.462;9.210;2022-08-05T12:22:06;36.30;41.30
40257;DHT22;25977;45.462;9.210;2022-08-05T12:24:32;36.40;41.50
40257;DHT22;25977;45.462;9.210;2022-08-05T12:27:00;36.50;41.70
40257;DHT22;25977;45.462;9.210;2022-08-05T12:29:26;36.50;41.70
40257;DHT22;25977;45.462;9.210;2022-08-05T12:31:58;36.60;41.90
40257;DHT22;25977;45.462;9.210;2022-08-05T12:34:26;36.70;41.90
40257;DHT22;25977;45.462;9.210;2022-08-05T12:36:58;36.90;42.20
40257;DHT22;25977;45.462;9.210;2022-08-05T12:39:25;36.80;41.50
40257;DHT22;25977;45.462;9.210;2022-08-05T12:41:58;36.30;42.00
40257;DHT22;25977;45.462;9.210;2022-08-05T12:44:25;36.50;42.50
40257;DHT22;25977;45.462;9.210;2022-08-05T12:46:54;36.50;42.20
40257;DHT22;25977;45.462;9.210;2022-08-05T12:49:21;36.70;42.30
40257;DHT22;25977;45.462;9.210;2022-08-05T12:51:57;36.40;42.50
40257;DHT22;25977;45.462;9.210;2022-08-05T12:54:28;36.30;42.20
40257;DHT22;25977;45.462;9.210;2022-08-05T12:57:03;36.20;42.00
40257;DHT22;25977;45.462;9.210;2022-08-05T12:59:54;36.30;42.30
40257;DHT22;25977;45.462;9.210;2022-08-05T13:02:22;36.30;42.70
40257;DHT22;25977;45.462;9.210;2022-08-05T13:04:49;36.60;42.80
40257;DHT22;25977;45.462;9.210;2022-08-05T13:07:25;36.70;42.70
40257;DHT22;25977;45.462;9.210;2022-08-05T13:09:54;36.70;42.60
40257;DHT22;25977;45.462;9.210;2022-08-05T13:12:22;36.50;42.20
40257;DHT22;25977;45.462;9.210;2022-08-05T13:14:55;36.70;42.40
40257;DHT22;25977;45.462;9.210;2022-08-05T13:17:24;36.70;42.20
40257;DHT22;25977;45.462;9.210;2022-08-05T13:22:32;36.90;41.90
40257;DHT22;25977;45.462;9.210;2022-08-05T13:25:00;36.90;42.00
40257;DHT22;25977;45.462;9.210;2022-08-05T13:29:58;37.10;42.10
40257;DHT22;25977;45.462;9.210;2022-08-05T13:32:24;37.10;41.90
40257;DHT22;25977;45.462;9.210;2022-08-05T13:34:50;37.20;41.90
40257;DHT22;25977;45.462;9.210;2022-08-05T13:37:20;37.30;41.80
40257;DHT22;25977;45.462;9.210;2022-08-05T13:39:50;37.30;41.60
40257;DHT22;25977;45.462;9.210;2022-08-05T13:42:19;37.30;41.50
40257;DHT22;25977;45.462;9.210;2022-08-05T13:44:45;37.40;41.10
40257;DHT22;25977;45.462;9.210;2022-08-05T13:47:14;37.20;41.00
40257;DHT22;25977;45.462;9.210;2022-08-05T13:49:39;37.30;41.10
40257;DHT22;25977;45.462;9.210;2022-08-05T13:52:09;37.30;41.10
40257;DHT22;25977;45.462;9.210;2022-08-05T13:54:36;37.30;41.10
40257;DHT22;25977;45.462;9.210;2022-08-05T13:57:01;37.30;41.20
40257;DHT22;25977;45.462;9.210;2022-08-05T13:59:27;37.50;41.10
40257;DHT22;25977;45.462;9.210;2022-08-05T14:01:54;37.50;41.00
40257;DHT22;25977;45.462;9.210;2022-08-05T14:04:20;37.50;40.80
40257;DHT22;25977;45.462;9.210;2022-08-05T14:07:06;37.60;40.80
40257;DHT22;25977;45.462;9.210;2022-08-05T14:09:33;37.70;40.60
40257;DHT22;25977;45.462;9.210;2022-08-05T14:11:59;37.40;39.70
40257;DHT22;25977;45.462;9.210;2022-08-05T14:14:25;37.40;39.80
40257;DHT22;25977;45.462;9.210;2022-08-05T14:16:51;37.50;39.90
40257;DHT22;25977;45.462;9.210;2022-08-05T14:19:17;37.40;39.40
40257;DHT22;25977;45.462;9.210;2022-08-05T14:21:43;37.40;38.90
40257;DHT22;25977;45.462;9.210;2022-08-05T14:24:08;37.30;38.80
40257;DHT22;25977;45.462;9.210;2022-08-05T14:26:38;37.40;38.70
40257;DHT22;25977;45.462;9.210;2022-08-05T14:29:04;37.40;38.60
40257;DHT22;25977;45.462;9.210;2022-08-05T14:31:30;37.30;38.50
40257;DHT22;25977;45.462;9.210;2022-08-05T14:33:56;37.10;38.90
40257;DHT22;25977;45.462;9.210;2022-08-05T14:36:21;37.10;39.20
40257;DHT22;25977;45.462;9.210;2022-08-05T14:38:48;37.10;39.50
40257;DHT22;25977;45.462;9.210;2022-08-05T14:41:14;37.00;39.10
40257;DHT22;25977;45.462;9.210;2022-08-05T14:43:40;37.10;39.70
40257;DHT22;25977;45.462;9.210;2022-08-05T14:46:05;37.10;40.50
40257;DHT22;25977;45.462;9.210;2022-08-05T14:48:31;37.10;40.70
40257;DHT22;25977;45.462;9.210;2022-08-05T14:50:57;37.00;41.10
40257;DHT22;25977;45.462;9.210;2022-08-05T14:53:22;37.00;41.30
40257;DHT22;25977;45.462;9.210;2022-08-05T14:55:48;36.90;40.70
40257;DHT22;25977;45.462;9.210;2022-08-05T14:58:14;36.90;39.40
40257;DHT22;25977;45.462;9.210;2022-08-05T15:00:40;36.90;38.40
40257;DHT22;25977;45.462;9.210;2022-08-05T15:03:06;36.90;38.30
40257;DHT22;25977;45.462;9.210;2022-08-05T15:05:33;36.70;39.40
40257;DHT22;25977;45.462;9.210;2022-08-05T15:08:00;36.70;40.40
40257;DHT22;25977;45.462;9.210;2022-08-05T15:10:26;36.70;40.70
40257;DHT22;25977;45.462;9.210;2022-08-05T15:12:51;36.70;41.10
40257;DHT22;25977;45.462;9.210;2022-08-05T15:15:17;36.80;41.30
40257;DHT22;25977;45.462;9.210;2022-08-05T15:17:43;36.70;41.30
40257;DHT22;25977;45.462;9.210;2022-08-05T15:20:10;36.70;41.20
40257;DHT22;25977;45.462;9.210;2022-08-05T15:22:36;36.60;41.10
40257;DHT22;25977;45.462;9.210;2022-08-05T15:25:02;36.60;39.90
40257;DHT22;25977;45.462;9.210;2022-08-05T15:27:28;36.70;38.90
40257;DHT22;25977;45.462;9.210;2022-08-05T15:29:54;36.70;39.40
40257;DHT22;25977;45.462;9.210;2022-08-05T15:32:20;36.80;39.20
40257;DHT22;25977;45.462;9.210;2022-08-05T15:34:45;36.70;39.60
40257;DHT22;25977;45.462;9.210;2022-08-05T15:37:11;36.70;40.90
40257;DHT22;25977;45.462;9.210;2022-08-05T15:39:37;36.60;41.30
40257;DHT22;25977;45.462;9.210;2022-08-05T15:42:03;36.70;41.50
40257;DHT22;25977;45.462;9.210;2022-08-05T15:44:29;36.70;42.00
40257;DHT22;25977;45.462;9.210;2022-08-05T15:46:54;36.60;42.00
40257;DHT22;25977;45.462;9.210;2022-08-05T15:49:20;36.60;42.30
40257;DHT22;25977;45.462;9.210;2022-08-05T15:51:46;36.60;41.40
40257;DHT22;25977;45.462;9.210;2022-08-05T15:54:12;36.40;40.90
40257;DHT22;25977;45.462;9.210;2022-08-05T15:56:38;36.50;41.00
40257;DHT22;25977;45.462;9.210;2022-08-05T15:59:04;36.50;40.60
40257;DHT22;25977;45.462;9.210;2022-08-05T16:01:29;36.50;40.80
40257;DHT22;25977;45.462;9.210;2022-08-05T16:03:55;36.40;39.80
40257;DHT22;25977;45.462;9.210;2022-08-05T16:06:21;36.40;39.10
40257;DHT22;25977;45.462;9.210;2022-08-05T16:08:48;36.40;37.80
40257;DHT22;25977;45.462;9.210;2022-08-05T16:11:14;36.40;37.80
40257;DHT22;25977;45.462;9.210;2022-08-05T16:13:40;36.30;38.00
40257;DHT22;25977;45.462;9.210;2022-08-05T16:16:06;36.10;38.70
40257;DHT22;25977;45.462;9.210;2022-08-05T16:18:32;36.00;39.30
40257;DHT22;25977;45.462;9.210;2022-08-05T16:20:58;36.00;39.70
40257;DHT22;25977;45.462;9.210;2022-08-05T16:23:26;36.10;39.90
40257;DHT22;25977;45.462;9.210;2022-08-05T16:26:06;36.10;38.90